createdAt,value
2019-01-12T00:01:12.433Z,1.25
2019-01-12T00:03:40.831Z,1.18
2019-01-12T00:06:09.225Z,1.31
2019-01-12T00:08:37.628Z,1.08
2019-01-12T00:11:06.324Z,1.03
2019-01-12T00:13:34.715Z,1.01
2019-01-12T00:16:03.406Z,0.97
2019-01-12T00:18:31.861Z,0.95
2019-01-12T00:21:00.250Z,0.96
2019-01-12T00:23:28.654Z,1.11
2019-01-12T00:25:57.044Z,1.05
2019-01-12T00:28:25.432Z,0.97
2019-01-12T00:30:54.181Z,1.03
2019-01-12T00:33:41.907Z,0.85
2019-01-12T00:36:10.308Z,1.14
2019-01-12T00:38:38.697Z,1.05
2019-01-12T00:41:07.357Z,1.03
2019-01-12T00:43:35.761Z,1.25
2019-01-12T00:46:04.284Z,1.32
2019-01-12T00:48:32.673Z,1.29
2019-01-12T00:51:01.076Z,1.09
2019-01-12T00:53:29.465Z,1.32
2019-01-12T00:55:58.092Z,1.10
2019-01-12T00:58:26.492Z,1.14
2019-01-12T01:00:54.949Z,0.95
2019-01-12T01:03:23.331Z,0.97
2019-01-12T01:05:52.060Z,1.18
2019-01-12T01:08:20.452Z,1.12
2019-01-12T01:11:08.481Z,1.13
2019-01-12T01:13:36.939Z,1.06
2019-01-12T01:16:05.466Z,1.09
2019-01-12T01:18:53.380Z,1.13
2019-01-12T01:21:21.771Z,1.16
2019-01-12T01:23:50.162Z,1.18
2019-01-12T01:26:19.027Z,1.12
2019-01-12T01:28:47.716Z,1.12
2019-01-12T01:31:16.354Z,1.20
2019-01-12T01:33:44.752Z,1.23
2019-01-12T01:36:13.140Z,1.28
2019-01-12T01:38:41.548Z,1.32
2019-01-12T01:41:10.224Z,1.16
2019-01-12T01:43:38.612Z,1.20
2019-01-12T01:46:07.088Z,1.21
2019-01-12T01:48:35.477Z,1.27
2019-01-12T01:51:03.933Z,1.38
2019-01-12T01:53:32.337Z,1.18
2019-01-12T01:56:00.729Z,1.32
2019-01-12T01:58:29.118Z,1.30
2019-01-12T02:00:57.520Z,1.19
2019-01-12T02:03:25.904Z,1.37
2019-01-12T02:05:54.290Z,1.31
2019-01-12T02:08:22.699Z,1.25
2019-01-12T02:10:51.086Z,1.32
2019-01-12T02:13:19.762Z,1.27
2019-01-12T02:15:48.168Z,1.32
2019-01-12T02:18:16.556Z,1.32
2019-01-12T02:20:44.944Z,1.45
2019-01-12T02:23:13.351Z,1.40
2019-01-12T02:25:41.743Z,1.47
2019-01-12T02:28:10.128Z,1.41
2019-01-12T02:30:38.542Z,1.37
2019-01-12T02:33:06.921Z,1.33
2019-01-12T02:35:35.309Z,1.34
2019-01-12T02:38:03.784Z,1.58
2019-01-12T02:40:32.177Z,1.39
2019-01-12T02:43:00.819Z,1.41
2019-01-12T02:45:29.223Z,1.49
2019-01-12T02:47:57.879Z,1.47
2019-01-12T02:50:26.504Z,1.46
2019-01-12T02:52:54.908Z,1.42
2019-01-12T02:55:23.303Z,1.68
2019-01-12T02:57:52.012Z,1.64
2019-01-12T03:00:20.469Z,1.46
2019-01-12T03:03:08.212Z,1.42
2019-01-12T03:05:36.603Z,1.44
2019-01-12T03:08:04.985Z,1.52
2019-01-12T03:10:33.670Z,1.58
2019-01-12T03:13:02.057Z,1.60
2019-01-12T03:15:30.512Z,1.55
2019-01-12T03:18:18.258Z,1.59
2019-01-12T03:20:46.948Z,1.54
2019-01-12T03:23:15.336Z,1.66
2019-01-12T03:25:43.745Z,1.76
2019-01-12T03:28:12.392Z,1.54
2019-01-12T03:31:00.372Z,1.71
2019-01-12T03:33:28.784Z,1.70
2019-01-12T03:35:57.238Z,1.80
2019-01-12T03:38:27.040Z,1.69
2019-01-12T03:40:56.005Z,1.79
2019-01-12T03:43:24.388Z,1.65
2019-01-12T03:45:53.155Z,1.63
2019-01-12T03:48:21.846Z,1.68
2019-01-12T03:50:50.311Z,1.87
2019-01-12T03:53:18.927Z,1.66
2019-01-12T03:55:47.325Z,1.76
2019-01-12T03:58:15.714Z,1.63
2019-01-12T04:00:44.117Z,1.76
2019-01-12T04:03:12.506Z,1.74
2019-01-12T04:05:40.894Z,1.64
2019-01-12T04:08:09.297Z,1.65
2019-01-12T04:10:37.920Z,1.73
2019-01-12T04:13:06.321Z,1.75
2019-01-12T04:15:34.792Z,1.72
2019-01-12T04:18:03.180Z,1.84
2019-01-12T04:20:31.892Z,1.75
2019-01-12T04:23:00.284Z,1.71
2019-01-12T04:25:33.673Z,1.69
2019-01-12T04:27:59.087Z,1.75
2019-01-12T04:30:27.472Z,1.60
2019-01-12T04:32:55.933Z,1.60
2019-01-12T04:35:24.733Z,1.72
2019-01-12T04:37:53.412Z,1.82
2019-01-12T04:40:21.823Z,1.74
2019-01-12T04:42:50.211Z,2.03
2019-01-12T04:45:18.592Z,2.18
2019-01-12T04:47:47.335Z,2.33
2019-01-12T04:50:55.635Z,2.31
2019-01-12T04:53:24.055Z,2.33
2019-01-12T04:55:52.439Z,2.52
2019-01-12T04:58:20.827Z,2.50
2019-01-12T05:00:49.574Z,2.53
2019-01-12T05:03:17.959Z,2.64
2019-01-12T05:05:46.354Z,2.75
2019-01-12T05:08:15.020Z,2.67
2019-01-12T05:10:43.701Z,2.63
2019-01-12T05:13:12.083Z,2.78
2019-01-12T05:15:40.488Z,2.69
2019-01-12T05:18:08.865Z,2.70
2019-01-12T05:20:37.530Z,2.68
2019-01-12T05:23:06.171Z,2.73
2019-01-12T05:25:34.550Z,2.79
2019-01-12T05:28:02.999Z,2.70
2019-01-12T05:30:31.398Z,2.75
2019-01-12T05:32:59.779Z,2.72
2019-01-12T05:35:28.170Z,2.68
2019-01-12T05:37:56.562Z,2.70
2019-01-12T05:40:24.957Z,2.70
2019-01-12T05:42:53.335Z,2.77
2019-01-12T05:45:21.733Z,2.75
2019-01-12T05:47:50.113Z,2.74
2019-01-12T05:50:18.506Z,2.80
2019-01-12T05:52:47.173Z,2.85
2019-01-12T05:55:15.858Z,2.81
2019-01-12T05:57:44.248Z,2.72
2019-01-12T06:00:52.570Z,2.86
2019-01-12T06:03:20.959Z,2.79
2019-01-12T06:05:49.611Z,2.86
2019-01-12T06:08:18.016Z,2.79
2019-01-12T06:10:46.675Z,2.88
2019-01-12T06:13:15.359Z,2.78
2019-01-12T06:15:43.831Z,2.89
2019-01-12T06:18:12.213Z,2.89
2019-01-12T06:20:40.600Z,2.92
2019-01-12T06:23:28.342Z,2.84
2019-01-12T06:26:03.653Z,2.91
2019-01-12T06:28:26.844Z,3.02
2019-01-12T06:30:55.258Z,2.90
2019-01-12T06:33:23.632Z,2.99
2019-01-12T06:35:52.388Z,2.97
2019-01-12T06:38:20.795Z,2.93
2019-01-12T06:40:49.188Z,2.89
2019-01-12T06:43:17.593Z,2.86
2019-01-12T06:45:45.981Z,2.86
2019-01-12T06:48:14.367Z,2.83
2019-01-12T06:50:42.763Z,2.81
2019-01-12T06:53:11.154Z,2.76
2019-01-12T06:55:39.546Z,2.87
2019-01-12T06:58:07.954Z,2.84
2019-01-12T07:00:36.323Z,2.79
2019-01-12T07:03:04.855Z,2.82
2019-01-12T07:05:33.253Z,2.74
2019-01-12T07:08:01.639Z,2.74
2019-01-12T07:10:30.024Z,2.77
2019-01-12T07:12:58.671Z,2.82
2019-01-12T07:15:27.056Z,2.77
2019-01-12T07:17:55.443Z,2.75
2019-01-12T07:20:23.843Z,2.70
2019-01-12T07:22:52.495Z,2.70
2019-01-12T07:25:21.206Z,2.71
2019-01-12T07:27:49.864Z,2.85
2019-01-12T07:30:58.435Z,2.87
2019-01-12T07:33:26.812Z,2.81
2019-01-12T07:35:55.453Z,2.87
2019-01-12T07:38:23.856Z,2.81
2019-01-12T07:40:52.517Z,2.89
2019-01-12T07:43:20.919Z,2.90
2019-01-12T07:45:49.578Z,2.82
2019-01-12T07:48:18.204Z,2.85
2019-01-12T07:50:46.602Z,2.78
2019-01-12T07:53:14.993Z,2.83
2019-01-12T07:55:43.712Z,2.90
2019-01-12T07:58:12.111Z,2.94
2019-01-12T08:00:40.500Z,2.98
2019-01-12T08:03:08.907Z,2.99
2019-01-12T08:05:37.634Z,2.98
2019-01-12T08:08:06.320Z,3.02
2019-01-12T08:10:34.797Z,3.00
2019-01-12T08:13:03.184Z,3.03
2019-01-12T08:15:31.969Z,3.03
2019-01-12T08:18:00.378Z,3.05
2019-01-12T08:20:28.764Z,3.10
2019-01-12T08:22:57.413Z,3.07
2019-01-12T08:25:26.048Z,3.15
2019-01-12T08:27:54.505Z,3.07
2019-01-12T08:30:42.245Z,3.08
2019-01-12T08:33:10.628Z,3.06
2019-01-12T08:35:39.017Z,3.10
2019-01-12T08:38:07.487Z,3.00
2019-01-12T08:40:35.877Z,2.96
2019-01-12T08:43:04.610Z,3.06
2019-01-12T08:45:33.012Z,3.08
2019-01-12T08:48:01.405Z,3.20
2019-01-12T08:50:29.812Z,3.15
2019-01-12T08:52:58.205Z,3.20
2019-01-12T08:55:46.187Z,3.22
2019-01-12T08:58:14.580Z,3.10
2019-01-12T09:00:43.233Z,3.23
2019-01-12T09:03:11.639Z,3.17
2019-01-12T09:05:40.316Z,3.27
2019-01-12T09:08:08.990Z,3.29
2019-01-12T09:10:37.426Z,3.34
2019-01-12T09:13:05.785Z,3.26
2019-01-12T09:15:34.173Z,3.30
2019-01-12T09:18:02.577Z,3.40
2019-01-12T09:20:30.968Z,3.28
2019-01-12T09:22:59.664Z,3.41
2019-01-12T09:25:28.069Z,3.31
2019-01-12T09:27:56.463Z,3.41
2019-01-12T09:30:24.847Z,3.39
2019-01-12T09:35:48.395Z,3.42
2019-01-12T09:38:17.076Z,3.40
2019-01-12T09:40:45.464Z,3.47
2019-01-12T09:43:13.870Z,3.41
2019-01-12T09:45:42.518Z,3.43
2019-01-12T09:48:10.907Z,3.34
2019-01-12T09:50:39.313Z,3.34
2019-01-12T09:53:07.716Z,3.31
2019-01-12T09:55:36.443Z,3.45
2019-01-12T09:58:04.849Z,3.30
2019-01-12T10:00:33.313Z,3.39
2019-01-12T10:03:21.055Z,3.46
2019-01-12T10:05:49.446Z,3.59
2019-01-12T10:08:17.849Z,3.55
2019-01-12T10:10:46.484Z,3.51
2019-01-12T10:13:15.164Z,3.62
2019-01-12T10:15:43.853Z,3.66
2019-01-12T10:18:12.476Z,3.67
2019-01-12T10:20:40.868Z,3.77
2019-01-12T10:23:28.616Z,3.67
2019-01-12T10:25:57.057Z,3.68
2019-01-12T10:28:25.719Z,3.75
2019-01-12T10:30:54.123Z,3.66
2019-01-12T10:33:22.776Z,3.60
2019-01-12T10:35:51.166Z,3.53
2019-01-12T10:38:59.489Z,3.58
2019-01-12T10:41:27.893Z,3.65
2019-01-12T10:43:56.287Z,3.60
2019-01-12T10:46:25.021Z,3.76
2019-01-12T10:48:53.408Z,3.85
2019-01-12T10:51:22.081Z,3.99
2019-01-12T10:53:50.872Z,3.97
2019-01-12T10:56:19.556Z,4.02
2019-01-12T10:58:48.184Z,4.07
2019-01-12T11:01:16.928Z,4.10
2019-01-12T11:03:45.342Z,4.04
2019-01-12T11:06:13.996Z,4.11
2019-01-12T11:08:42.475Z,3.93
2019-01-12T11:11:11.111Z,4.20
2019-01-12T11:13:39.535Z,4.26
2019-01-12T11:16:08.079Z,3.97
2019-01-12T11:18:36.475Z,4.07
2019-01-12T11:21:04.870Z,4.03
2019-01-12T11:23:33.348Z,3.97
2019-01-12T11:26:01.740Z,4.06
2019-01-12T11:28:30.128Z,3.79
2019-01-12T11:30:58.534Z,3.88
2019-01-12T11:33:26.925Z,3.80
2019-01-12T11:35:55.317Z,3.76
2019-01-12T11:38:23.721Z,3.85
2019-01-12T11:40:52.420Z,3.76
2019-01-12T11:43:20.817Z,4.03
2019-01-12T11:45:50.711Z,3.85
2019-01-12T11:48:19.335Z,4.07
2019-01-12T11:50:47.726Z,4.01
2019-01-12T11:53:16.129Z,3.99
2019-01-12T11:55:44.522Z,4.05
2019-01-12T11:58:12.914Z,3.91
2019-01-12T12:00:41.551Z,4.00
2019-01-12T12:03:09.944Z,4.03
2019-01-12T12:05:38.333Z,3.93
2019-01-12T12:08:46.646Z,3.90
2019-01-12T12:11:15.038Z,4.07
2019-01-12T12:13:43.432Z,3.99
2019-01-12T12:16:43.114Z,4.03
2019-01-12T12:19:01.296Z,4.04
2019-01-12T12:21:29.968Z,4.00
2019-01-12T12:23:58.381Z,4.14
2019-01-12T12:26:26.777Z,4.30
2019-01-12T12:28:55.512Z,4.13
2019-01-12T12:31:23.918Z,3.98
2019-01-12T12:36:41.410Z,4.11
2019-01-12T12:39:09.973Z,3.96
2019-01-12T12:41:38.365Z,3.99
2019-01-12T12:44:06.846Z,3.89
2019-01-12T12:46:35.569Z,3.78
2019-01-12T12:51:59.256Z,3.89
2019-01-12T12:54:27.941Z,3.88
2019-01-12T12:56:56.339Z,4.01
2019-01-12T12:59:44.082Z,3.96
2019-01-12T13:02:12.541Z,4.07
2019-01-12T13:04:40.953Z,4.20
2019-01-12T13:07:09.595Z,4.20
2019-01-12T13:09:37.988Z,4.29
2019-01-12T13:14:45.715Z,4.24
2019-01-12T13:17:14.353Z,4.15
2019-01-12T13:19:43.063Z,4.07
2019-01-12T13:22:11.471Z,4.01
2019-01-12T13:24:40.103Z,3.84
2019-01-12T13:27:08.814Z,3.78
2019-01-12T13:29:37.468Z,3.99
2019-01-12T13:32:05.857Z,4.00
2019-01-12T13:34:34.250Z,4.10
2019-01-12T13:37:02.661Z,3.81
2019-01-12T13:39:32.174Z,3.84
2019-01-12T13:42:01.161Z,3.82
2019-01-12T13:44:29.563Z,3.83
2019-01-12T13:46:57.974Z,3.81
2019-01-12T13:49:26.370Z,3.90
2019-01-12T13:51:54.782Z,3.81
2019-01-12T13:54:23.433Z,3.61
2019-01-12T13:56:51.901Z,3.79
2019-01-12T13:59:20.315Z,3.93
2019-01-12T14:01:48.714Z,3.71
2019-01-12T14:04:17.116Z,3.64
2019-01-12T14:06:45.837Z,3.79
2019-01-12T14:09:14.243Z,3.70
2019-01-12T14:11:43.014Z,3.69
2019-01-12T14:14:11.427Z,3.68
2019-01-12T14:16:40.059Z,3.67
2019-01-12T14:19:08.483Z,3.82
2019-01-12T14:21:37.188Z,3.89
2019-01-12T14:24:05.598Z,3.83
2019-01-12T14:26:34.007Z,3.91
2019-01-12T14:29:02.414Z,3.78
2019-01-12T14:31:30.824Z,3.66
2019-01-12T14:33:59.471Z,3.81
2019-01-12T14:36:28.122Z,3.87
2019-01-12T14:38:56.530Z,3.78
2019-01-12T14:41:24.951Z,3.75
2019-01-12T14:43:53.335Z,3.75
2019-01-12T14:46:21.754Z,3.74
2019-01-12T14:48:50.146Z,3.85
2019-01-12T14:51:18.548Z,3.81
2019-01-12T14:53:47.293Z,3.79
2019-01-12T14:56:15.693Z,3.93
2019-01-12T14:58:44.099Z,3.84
2019-01-12T15:01:12.529Z,3.72
2019-01-12T15:03:40.923Z,3.88
2019-01-12T15:06:09.318Z,3.95
2019-01-12T15:08:37.733Z,3.74
2019-01-12T15:11:06.127Z,3.75
2019-01-12T15:13:34.829Z,3.77
2019-01-12T15:16:03.242Z,3.70
2019-01-12T15:18:31.637Z,3.67
2019-01-12T15:21:00.057Z,3.78
2019-01-12T15:23:28.459Z,3.78
2019-01-12T15:25:56.861Z,3.89
2019-01-12T15:28:37.311Z,3.86
2019-01-12T15:31:06.075Z,3.92
2019-01-12T15:33:34.477Z,3.88
2019-01-12T15:36:02.887Z,3.90
2019-01-12T15:38:31.598Z,3.90
2019-01-12T15:41:00.281Z,3.90
2019-01-12T15:43:28.693Z,3.92
2019-01-12T15:45:57.077Z,3.84
2019-01-12T15:48:25.712Z,3.93
2019-01-12T15:50:54.119Z,3.93
2019-01-12T15:53:22.525Z,3.83
2019-01-12T15:55:50.916Z,3.84
2019-01-12T15:58:19.321Z,3.74
2019-01-12T16:00:47.710Z,3.78
2019-01-12T16:03:16.354Z,3.72
2019-01-12T16:05:45.096Z,3.76
2019-01-12T16:08:13.780Z,3.74
2019-01-12T16:10:42.181Z,3.72
2019-01-12T16:13:10.590Z,3.73
2019-01-12T16:15:38.980Z,3.74
2019-01-12T16:18:07.704Z,3.73
2019-01-12T16:20:36.777Z,3.73
2019-01-12T16:23:05.585Z,3.70
2019-01-12T16:25:33.991Z,3.67
2019-01-12T16:28:02.462Z,3.72
2019-01-12T16:30:30.851Z,3.72
2019-01-12T16:32:59.324Z,3.74
2019-01-12T16:35:27.723Z,3.76
2019-01-12T16:37:56.119Z,3.78
2019-01-12T16:40:28.013Z,3.80
2019-01-12T16:42:56.404Z,3.77
2019-01-12T16:45:25.043Z,3.79
2019-01-12T16:47:53.780Z,3.78
2019-01-12T16:50:22.461Z,3.79
2019-01-12T16:52:51.161Z,3.70
2019-01-12T16:55:19.643Z,3.71
2019-01-12T16:57:48.046Z,3.74
2019-01-12T17:00:21.953Z,3.76
2019-01-12T17:02:50.411Z,3.77
2019-01-12T17:05:19.189Z,3.79
2019-01-12T17:07:47.661Z,3.79
2019-01-12T17:10:18.663Z,3.87
2019-01-12T17:12:47.202Z,3.87
2019-01-12T17:15:17.981Z,3.77
2019-01-12T17:17:46.370Z,3.79
2019-01-12T17:20:19.310Z,3.82
2019-01-12T17:22:48.268Z,3.65
2019-01-12T17:25:17.072Z,3.69
2019-01-12T17:27:45.869Z,3.71
2019-01-12T17:30:17.516Z,3.58
2019-01-12T17:32:46.304Z,3.56
2019-01-12T17:35:14.849Z,3.44
2019-01-12T17:37:43.547Z,3.38
2019-01-12T17:40:14.123Z,3.39
2019-01-12T17:42:42.518Z,3.37
2019-01-12T17:45:14.376Z,3.34
2019-01-12T17:47:42.761Z,3.28
2019-01-12T17:50:13.909Z,3.27
2019-01-12T17:52:42.653Z,3.25
2019-01-12T17:55:13.781Z,3.09
2019-01-12T17:57:42.253Z,3.13
2019-01-12T18:00:29.679Z,3.09
2019-01-12T18:02:58.402Z,3.20
2019-01-12T18:05:27.519Z,3.00
2019-01-12T18:07:55.943Z,3.18
2019-01-12T18:10:24.751Z,3.11
2019-01-12T18:12:53.309Z,3.03
2019-01-12T18:15:21.691Z,2.95
2019-01-12T18:17:50.099Z,2.94
2019-01-12T18:20:19.064Z,2.90
2019-01-12T18:22:47.594Z,2.88
2019-01-12T18:25:16.971Z,2.92
2019-01-12T18:27:45.521Z,2.77
2019-01-12T18:30:22.104Z,2.84
2019-01-12T18:32:50.631Z,2.75
2019-01-12T18:35:19.021Z,2.74
2019-01-12T18:37:47.492Z,2.77
2019-01-12T18:40:18.731Z,2.67
2019-01-12T18:42:47.109Z,2.72
2019-01-12T18:45:17.651Z,2.70
2019-01-12T18:47:46.034Z,2.68
2019-01-12T18:50:17.419Z,2.79
2019-01-12T18:52:45.881Z,2.71
2019-01-12T18:55:14.909Z,2.69
2019-01-12T18:57:43.377Z,2.69
2019-01-12T19:00:20.083Z,2.71
2019-01-12T19:02:48.865Z,2.66
2019-01-12T19:05:17.322Z,2.67
2019-01-12T19:07:46.032Z,2.67
2019-01-12T19:10:14.980Z,2.68
2019-01-12T19:12:43.370Z,2.71
2019-01-12T19:15:14.892Z,2.70
2019-01-12T19:17:43.650Z,2.71
2019-01-12T19:20:12.170Z,2.73
2019-01-12T19:22:40.620Z,2.67
2019-01-12T19:25:11.457Z,2.75
2019-01-12T19:27:39.921Z,2.73
2019-01-12T19:30:14.716Z,2.82
2019-01-12T19:32:43.436Z,2.79
2019-01-12T19:35:11.825Z,2.80
2019-01-12T19:37:40.218Z,2.82
2019-01-12T19:40:11.655Z,2.79
2019-01-12T19:42:40.330Z,2.76
2019-01-12T19:45:11.254Z,2.80
2019-01-12T19:47:39.726Z,2.72
2019-01-12T19:50:17.363Z,2.70
2019-01-12T19:52:46.137Z,2.80
2019-01-12T19:55:14.537Z,2.75
2019-01-12T19:57:43.211Z,2.74
2019-01-12T20:00:14.541Z,2.69
2019-01-12T20:02:43.234Z,2.69
2019-01-12T20:05:11.688Z,2.65
2019-01-12T20:07:40.242Z,2.66
2019-01-12T20:10:11.871Z,2.66
2019-01-12T20:12:40.254Z,2.64
2019-01-12T20:15:12.226Z,2.67
2019-01-12T20:17:40.612Z,2.64
2019-01-12T20:20:12.156Z,2.62
2019-01-12T20:22:40.911Z,2.64
2019-01-12T20:25:12.202Z,2.64
2019-01-12T20:27:40.672Z,2.67
2019-01-12T20:30:29.796Z,2.63
2019-01-12T20:33:24.145Z,2.61
2019-01-12T20:36:21.448Z,2.60
2019-01-12T20:39:10.771Z,2.57
2019-01-12T20:41:59.006Z,2.52
2019-01-12T20:44:30.723Z,2.50
2019-01-12T20:47:11.158Z,2.49
2019-01-12T20:49:42.589Z,2.49
2019-01-12T20:52:31.927Z,2.52
2019-01-12T20:55:12.467Z,2.53
2019-01-12T20:57:56.149Z,2.51
2019-01-12T21:00:44.201Z,2.52
2019-01-12T21:03:15.650Z,2.52
2019-01-12T21:06:14.259Z,2.52
2019-01-12T21:09:05.249Z,2.54
2019-01-12T21:12:08.308Z,2.53
2019-01-12T21:14:39.761Z,2.57
2019-01-12T21:17:08.144Z,2.58
2019-01-12T21:19:36.597Z,2.62
2019-01-12T21:22:05.383Z,2.63
2019-01-12T21:24:33.772Z,2.61
2019-01-12T21:27:02.446Z,2.62
2019-01-12T21:29:35.193Z,2.62
2019-01-12T21:32:01.027Z,2.68
2019-01-12T21:34:29.736Z,2.68
2019-01-12T21:36:58.376Z,2.72
2019-01-12T21:39:26.817Z,2.74
2019-01-12T21:41:55.207Z,2.68
2019-01-12T21:44:23.664Z,2.70
2019-01-12T21:47:11.638Z,2.70
2019-01-12T21:49:40.023Z,2.68
2019-01-12T21:52:08.403Z,2.64
2019-01-12T21:54:36.801Z,2.69
2019-01-12T21:57:05.186Z,2.70
2019-01-12T21:59:33.562Z,2.72
2019-01-12T22:02:02.107Z,2.67
2019-01-12T22:04:30.527Z,2.73
2019-01-12T22:06:59.184Z,2.72
2019-01-12T22:09:27.556Z,2.74
2019-01-12T22:11:55.937Z,2.74
2019-01-12T22:14:24.383Z,2.72
2019-01-12T22:16:52.762Z,2.67
2019-01-12T22:19:21.464Z,2.67
2019-01-12T22:21:50.147Z,2.70
2019-01-12T22:24:18.543Z,2.64
2019-01-12T22:26:46.930Z,2.74
2019-01-12T22:29:15.312Z,2.66
2019-01-12T22:31:43.710Z,2.67
2019-01-12T22:34:12.102Z,2.68
2019-01-12T22:36:40.480Z,2.69
2019-01-12T22:39:09.207Z,2.65
2019-01-12T22:41:37.900Z,2.71
2019-01-12T22:44:06.577Z,2.74
2019-01-12T22:46:34.974Z,2.76
2019-01-12T22:49:03.643Z,2.79
2019-01-12T22:51:32.326Z,2.81
2019-01-12T22:54:01.014Z,2.75
2019-01-12T22:56:29.639Z,2.80
2019-01-12T22:58:58.037Z,2.82
2019-01-12T23:01:29.740Z,2.84
2019-01-12T23:03:58.129Z,2.82
2019-01-12T23:06:26.755Z,2.87
2019-01-12T23:08:55.155Z,2.80
2019-01-12T23:11:23.544Z,2.90
2019-01-12T23:13:51.929Z,2.85
2019-01-12T23:16:20.623Z,2.89
2019-01-12T23:18:49.307Z,2.90
2019-01-12T23:21:17.691Z,2.94
2019-01-12T23:23:46.096Z,2.91
2019-01-12T23:26:14.477Z,3.02
2019-01-12T23:28:42.867Z,2.95
2019-01-12T23:31:11.260Z,2.93
2019-01-12T23:33:39.640Z,2.97
2019-01-12T23:36:08.032Z,2.90
2019-01-12T23:38:36.509Z,2.98
2019-01-12T23:41:05.166Z,2.92
2019-01-12T23:43:34.015Z,2.96
2019-01-12T23:46:02.479Z,3.02
2019-01-12T23:48:30.873Z,2.94
2019-01-12T23:50:59.561Z,3.01
2019-01-12T23:53:27.954Z,3.01
2019-01-12T23:55:56.335Z,3.02
2019-01-12T23:58:24.737Z,3.01
